Time;durP1;ratioP1;P1;durP2;ratioP2;P2;SDS_P1;SDS_P2;PMS_P1;PMS_P2;Temp;Humidity;BMP_temperature;BMP_pressure;BME280_temperature;BME280_humidity;BME280_pressure;Samples;Min_cycle;Max_cycle;Signal;HPM_P1;HPM_P2
2022/04/10 00:01:45;;;;;;;17.08;2.80;;;;;;;1.54;100.00;100996.50;4965860;28;20042;-74
2022/04/10 00:04:11;;;;;;;18.15;3.10;;;;;;;1.65;100.00;101001.94;4968960;28;20045;-76
2022/04/10 00:06:36;;;;;;;17.63;3.03;;;;;;;1.59;100.00;101004.03;4950430;28;20403;-76
2022/04/10 00:09:02;;;;;;;11.60;2.97;;;;;;;1.57;100.00;101008.47;4964385;28;20030;-75
2022/04/10 00:11:29;;;;;;;18.60;3.30;;;;;;;1.69;100.00;101000.84;4964649;28;20047;-75
2022/04/10 00:13:54;;;;;;;14.75;2.78;;;;;;;1.83;100.00;100999.28;4967273;28;20042;-75
2022/04/10 00:16:22;;;;;;;20.13;3.45;;;;;;;1.84;100.00;100993.19;4978848;28;20031;-75
2022/04/10 00:18:48;;;;;;;14.57;2.85;;;;;;;1.72;100.00;101005.88;4967003;28;20045;-77
2022/04/10 00:21:13;;;;;;;22.27;3.22;;;;;;;1.65;100.00;101003.69;4956417;28;20039;-75
2022/04/10 00:23:39;;;;;;;11.80;2.42;;;;;;;1.65;100.00;100996.78;4962386;28;20038;-74
2022/04/10 00:26:04;;;;;;;10.55;2.50;;;;;;;1.46;100.00;100996.09;4964644;28;20102;-75
2022/04/10 00:28:30;;;;;;;16.98;2.83;;;;;;;1.46;100.00;100996.09;4951988;28;20070;-75
2022/04/10 00:30:56;;;;;;;16.77;3.33;;;;;;;1.49;100.00;100996.78;4967264;28;20065;-75
2022/04/10 00:33:22;;;;;;;17.42;3.15;;;;;;;1.58;100.00;100992.00;4962019;28;20039;-74
2022/04/10 00:35:48;;;;;;;17.23;2.80;;;;;;;1.53;100.00;100992.28;4983510;28;20034;-76
2022/04/10 00:38:14;;;;;;;16.45;2.55;;;;;;;1.47;100.00;100988.25;4967913;28;20038;-75
2022/04/10 00:40:39;;;;;;;18.60;2.65;;;;;;;1.60;100.00;100987.59;4967845;28;20042;-74
2022/04/10 00:43:05;;;;;;;19.00;3.38;;;;;;;1.73;100.00;100989.44;4967273;28;20559;-75
2022/04/10 00:45:31;;;;;;;18.70;2.78;;;;;;;1.78;100.00;100990.94;4945120;28;20121;-75
2022/04/10 00:47:56;;;;;;;15.25;3.00;;;;;;;1.80;100.00;100996.88;4952446;28;20578;-75
2022/04/10 00:50:23;;;;;;;21.00;3.10;;;;;;;1.75;100.00;100999.69;4980814;28;20038;-75
2022/04/10 00:52:49;;;;;;;14.10;2.78;;;;;;;1.73;100.00;100994.63;4951083;28;20712;-75
2022/04/10 00:55:16;;;;;;;18.90;3.28;;;;;;;1.60;100.00;100995.34;4950269;28;20070;-75
2022/04/10 00:57:47;;;;;;;19.85;3.03;;;;;;;1.53;100.00;100995.69;4956005;28;20035;-75
2022/04/10 01:00:15;;;;;;;19.50;3.30;;;;;;;1.41;100.00;100996.31;4946730;28;20077;-75
2022/04/10 01:02:41;;;;;;;19.25;3.40;;;;;;;1.33;100.00;100990.75;4973795;28;20042;-74
2022/04/10 01:05:07;;;;;;;18.92;3.63;;;;;;;1.34;100.00;100997.59;4952935;28;20046;-74
2022/04/10 01:07:33;;;;;;;18.05;2.80;;;;;;;1.39;100.00;100998.16;4955968;28;20061;-75
2022/04/10 01:09:59;;;;;;;15.00;2.80;;;;;;;1.51;100.00;101004.44;4953317;28;20395;-74
2022/04/10 01:12:25;;;;;;;16.92;3.45;;;;;;;1.48;100.00;101010.59;4949863;28;20027;-73
2022/04/10 01:14:54;;;;;;;13.68;3.00;;;;;;;1.65;100.00;101012.28;4965086;28;20944;-74
2022/04/10 01:17:30;;;;;;;19.90;3.13;;;;;;;1.74;100.00;101026.47;4948268;28;20042;-74
2022/04/10 01:19:57;;;;;;;11.27;2.92;;;;;;;1.75;100.00;101017.78;4969285;28;20473;-74
2022/04/10 01:22:34;;;;;;;16.52;3.25;;;;;;;1.73;100.00;101027.38;4950991;28;20042;-74
2022/04/10 01:25:06;;;;;;;14.50;3.60;;;;;;;1.73;100.00;101025.66;4951063;28;20508;-73
2022/04/10 01:27:37;;;;;;;19.20;3.35;;;;;;;1.70;100.00;101028.41;4931875;28;20756;-73
2022/04/10 01:30:06;;;;;;;15.55;3.25;;;;;;;1.67;100.00;101025.13;4965019;28;20039;-74
2022/04/10 01:32:32;;;;;;;13.43;2.95;;;;;;;1.51;100.00;101015.63;4968557;28;20031;-73
2022/04/10 01:35:00;;;;;;;14.32;3.05;;;;;;;1.59;100.00;101022.13;4981250;28;20045;-75
2022/04/10 01:37:27;;;;;;;10.60;2.95;;;;;;;1.42;100.00;101023.84;4967126;28;20041;-75
2022/04/10 01:39:53;;;;;;;13.18;2.60;;;;;;;1.41;100.00;101024.75;4949167;28;20125;-75
2022/04/10 01:42:19;;;;;;;13.50;2.67;;;;;;;1.26;100.00;101021.25;4966634;28;20121;-74
2022/04/10 01:44:44;;;;;;;10.38;2.40;;;;;;;1.24;100.00;101033.38;4966309;28;20041;-74
2022/04/10 01:47:14;;;;;;;12.02;2.30;;;;;;;1.34;100.00;101028.59;4961527;28;20023;-76
2022/04/10 01:49:40;;;;;;;15.13;2.75;;;;;;;1.38;100.00;101037.03;4949407;28;20514;-75
2022/04/10 01:52:06;;;;;;;9.77;2.17;;;;;;;1.30;100.00;101035.69;4963914;28;20042;-75
2022/04/10 01:54:33;;;;;;;10.23;2.67;;;;;;;1.30;100.00;101038.25;4951537;28;20586;-75
2022/04/10 01:56:58;;;;;;;14.68;2.20;;;;;;;1.15;100.00;101023.56;4949235;28;20039;-74
2022/04/10 01:59:29;;;;;;;13.10;2.08;;;;;;;1.10;100.00;101044.44;4976356;28;20581;-75
2022/04/10 02:01:55;;;;;;;8.35;2.22;;;;;;;1.12;100.00;101050.38;4982008;28;20035;-74
2022/04/10 02:04:21;;;;;;;9.70;2.08;;;;;;;1.31;100.00;101047.66;4957138;28;20117;-74
2022/04/10 02:06:47;;;;;;;8.30;1.90;;;;;;;1.37;100.00;101049.09;4964500;28;20500;-75
2022/04/10 02:09:13;;;;;;;7.38;2.38;;;;;;;1.35;100.00;101046.59;4960593;28;20115;-75
2022/04/10 02:11:40;;;;;;;9.73;2.25;;;;;;;1.34;100.00;101055.28;4952156;28;20560;-74
2022/04/10 02:14:08;;;;;;;10.55;2.42;;;;;;;1.33;100.00;101042.44;4947134;28;20043;-74
2022/04/10 02:16:33;;;;;;;7.40;2.22;;;;;;;1.32;100.00;101054.53;4959563;28;20445;-75
2022/04/10 02:18:59;;;;;;;12.07;2.90;;;;;;;1.19;100.00;101055.22;4966178;28;20492;-74
2022/04/10 02:21:24;;;;;;;12.68;2.65;;;;;;;1.19;100.00;101055.22;4950196;28;20035;-74
2022/04/10 02:23:51;;;;;;;7.93;2.60;;;;;;;1.22;100.00;101060.25;4977142;28;20088;-73
2022/04/10 02:26:16;;;;;;;12.13;2.95;;;;;;;1.11;100.00;101060.78;4978124;28;20755;-75
2022/04/10 02:28:42;;;;;;;11.80;3.33;;;;;;;1.20;100.00;101069.81;4949906;28;20050;-75
2022/04/10 02:31:08;;;;;;;12.02;3.33;;;;;;;1.17;100.00;101068.25;4962897;28;20128;-75
2022/04/10 02:33:34;;;;;;;14.82;3.85;;;;;;;1.21;100.00;101090.41;4948447;28;20045;-75
2022/04/10 02:36:01;;;;;;;14.23;3.83;;;;;;;1.20;100.00;101083.56;4964044;28;20031;-76
2022/04/10 02:38:28;;;;;;;16.30;3.63;;;;;;;0.88;100.00;101088.59;4932700;28;20039;-76
2022/04/10 02:40:54;;;;;;;15.38;3.35;;;;;;;0.83;100.00;101085.41;4950945;28;20039;-75
2022/04/10 02:43:20;;;;;;;12.82;3.65;;;;;;;0.71;100.00;101088.59;4977765;28;20027;-75
2022/04/10 02:45:48;;;;;;;11.15;3.53;;;;;;;0.57;100.00;101089.28;4967550;28;20038;-75
2022/04/10 02:48:13;;;;;;;14.23;3.95;;;;;;;0.45;100.00;101092.41;4963069;28;20042;-76
2022/04/10 02:50:39;;;;;;;15.32;4.80;;;;;;;0.43;100.00;101086.50;4964465;28;20049;-76
2022/04/10 02:53:06;;;;;;;12.77;4.38;;;;;;;0.47;100.00;101093.19;4963468;28;20034;-75
2022/04/10 02:55:34;;;;;;;17.35;5.45;;;;;;;0.45;100.00;101093.25;4948585;28;20496;-76
2022/04/10 02:58:18;;;;;;;17.20;5.63;;;;;;;0.53;100.00;101104.06;4962805;28;20741;-75
2022/04/10 03:01:02;;;;;;;13.30;5.13;;;;;;;0.37;100.00;101098.78;4963552;28;20038;-76
2022/04/10 03:03:47;;;;;;;11.90;3.80;;;;;;;0.46;100.00;101099.25;4955421;28;20057;-75
2022/04/10 03:06:31;;;;;;;13.57;4.45;;;;;;;0.22;100.00;101081.44;4961072;28;20049;-77
2022/04/10 03:09:17;;;;;;;9.82;3.85;;;;;;;0.38;100.00;101094.47;4961456;28;20728;-76
2022/04/10 03:12:05;;;;;;;16.10;4.55;;;;;;;0.39;100.00;101085.81;4972518;28;20396;-76
2022/04/10 03:14:52;;;;;;;18.92;5.30;;;;;;;0.41;100.00;101085.75;4958016;28;20053;-78
2022/04/10 03:17:36;;;;;;;17.67;5.00;;;;;;;0.74;100.00;101089.28;4976407;28;20082;-77
2022/04/10 03:20:22;;;;;;;17.58;4.30;;;;;;;0.82;100.00;101093.25;4965756;28;20587;-76
2022/04/10 03:23:10;;;;;;;18.50;4.00;;;;;;;0.77;100.00;101091.72;4979637;28;20132;-75
2022/04/10 03:25:55;;;;;;;15.27;4.18;;;;;;;0.68;100.00;101086.16;4978341;28;20050;-75
2022/04/10 03:28:39;;;;;;;13.52;3.95;;;;;;;0.61;100.00;101102.88;4969088;28;20053;-75
2022/04/10 03:31:24;;;;;;;19.25;4.07;;;;;;;0.62;100.00;101101.94;4957770;28;20057;-75
2022/04/10 03:34:10;;;;;;;18.60;4.25;;;;;;;0.60;100.00;101108.94;4964281;28;20061;-76
2022/04/10 03:36:54;;;;;;;16.98;3.78;;;;;;;0.75;100.00;101105.59;4966084;28;20046;-75
2022/04/10 03:39:38;;;;;;;11.07;3.35;;;;;;;0.80;100.00;101077.81;4969725;28;20057;-75
2022/04/10 03:42:23;;;;;;;10.55;2.78;;;;;;;0.81;100.00;101088.97;4967039;28;20057;-76
2022/04/10 03:45:08;;;;;;;17.50;3.03;;;;;;;0.75;100.00;101085.81;4980287;28;20093;-75
2022/04/10 03:47:53;;;;;;;14.82;3.25;;;;;;;0.67;100.00;101079.31;4954425;28;20045;-76
2022/04/10 03:50:37;;;;;;;12.00;2.50;;;;;;;0.64;100.00;101097.53;4985088;28;20054;-75
2022/04/10 03:53:26;;;;;;;14.35;2.95;;;;;;;0.53;100.00;101092.91;4967667;28;20042;-75
2022/04/10 03:56:10;;;;;;;12.50;2.28;;;;;;;0.53;100.00;101098.91;4970992;28;20126;-75
2022/04/10 03:58:55;;;;;;;7.75;2.20;;;;;;;0.42;100.00;101100.31;4969441;28;20054;-74
2022/04/10 04:01:39;;;;;;;12.23;2.40;;;;;;;0.44;100.00;101104.50;4980869;28;20130;-76
2022/04/10 04:04:24;;;;;;;11.45;2.70;;;;;;;0.45;100.00;101098.41;4981710;28;20113;-72
2022/04/10 04:07:08;;;;;;;10.95;2.88;;;;;;;0.36;100.00;101099.69;4967159;28;20053;-75
2022/04/10 04:09:52;;;;;;;14.48;4.50;;;;;;;0.34;100.00;101104.09;4981312;28;20050;-74
2022/04/10 04:12:37;;;;;;;11.45;3.92;;;;;;;0.32;100.00;101105.91;4959885;28;20049;-76
2022/04/10 04:15:21;;;;;;;17.52;4.93;;;;;;;0.37;100.00;101098.78;4966783;28;20069;-75
2022/04/10 04:18:06;;;;;;;14.18;4.20;;;;;;;0.26;100.00;101108.75;4972273;28;20126;-75
2022/04/10 04:20:51;;;;;;;17.40;5.13;;;;;;;0.36;100.00;101111.78;4971004;28;20104;-75
2022/04/10 04:23:35;;;;;;;21.52;5.50;;;;;;;0.42;100.00;101110.66;4967974;28;20046;-75
2022/04/10 04:26:20;;;;;;;18.98;5.22;;;;;;;0.53;100.00;101121.31;4982547;28;20037;-75
2022/04/10 04:29:05;;;;;;;18.85;5.30;;;;;;;0.49;100.00;101136.09;4967102;28;20571;-75
2022/04/10 04:31:49;;;;;;;24.80;5.28;;;;;;;0.63;100.00;101150.94;4970948;28;20054;-75
2022/04/10 04:34:33;;;;;;;24.48;5.65;;;;;;;0.75;100.00;101142.59;4962237;28;20618;-75
2022/04/10 04:37:18;;;;;;;21.88;5.43;;;;;;;0.82;100.00;101150.06;4950821;28;20123;-75
2022/04/10 04:40:03;;;;;;;20.58;5.25;;;;;;;0.82;100.00;101142.31;4962576;28;20065;-75
2022/04/10 04:42:48;;;;;;;18.65;4.60;;;;;;;0.85;100.00;101158.50;4975742;28;20762;-75
2022/04/10 04:45:33;;;;;;;26.90;4.75;;;;;;;0.88;100.00;101162.66;4978872;28;20074;-76
2022/04/10 04:48:21;;;;;;;22.50;4.30;;;;;;;0.88;100.00;101160.91;4968432;28;20046;-76
2022/04/10 04:51:06;;;;;;;29.42;5.10;;;;;;;0.90;100.00;101173.75;4967552;28;20085;-75
2022/04/10 04:53:50;;;;;;;26.52;4.45;;;;;;;0.82;100.00;101175.88;4964347;28;20130;-75
2022/04/10 04:56:35;;;;;;;18.75;4.82;;;;;;;0.96;100.00;101176.03;4972373;28;20140;-75
2022/04/10 04:59:20;;;;;;;24.60;4.35;;;;;;;0.95;100.00;101174.38;4962363;28;20105;-75
2022/04/10 05:02:05;;;;;;;17.05;4.15;;;;;;;0.97;100.00;101178.56;4969335;28;20531;-76
2022/04/10 05:04:52;;;;;;;19.30;4.35;;;;;;;1.01;100.00;101173.25;4966159;28;20038;-75
2022/04/10 05:07:37;;;;;;;15.80;4.10;;;;;;;0.96;100.00;101181.19;4963582;28;20038;-75
2022/04/10 05:10:22;;;;;;;21.98;4.38;;;;;;;1.04;100.00;101183.44;4964183;28;20138;-74
2022/04/10 05:13:09;;;;;;;22.70;4.70;;;;;;;0.97;100.00;101196.63;4956743;28;20041;-76
2022/04/10 05:15:54;;;;;;;17.65;4.18;;;;;;;0.99;100.00;101204.31;4959107;28;20107;-75
2022/04/10 05:18:43;;;;;;;23.45;4.57;;;;;;;1.03;100.00;101205.84;4967842;28;20101;-74
2022/04/10 05:21:28;;;;;;;19.70;4.30;;;;;;;1.05;100.00;101208.34;4960939;28;20081;-74
2022/04/10 05:24:12;;;;;;;21.25;4.57;;;;;;;1.03;100.00;101210.19;4966947;28;20037;-75
2022/04/10 05:26:56;;;;;;;15.18;3.83;;;;;;;0.98;100.00;101207.81;4952133;28;20177;-74
2022/04/10 05:29:40;;;;;;;26.58;4.53;;;;;;;1.07;100.00;101217.69;4981400;28;20042;-74
2022/04/10 05:32:24;;;;;;;18.55;4.15;;;;;;;1.23;100.00;101228.13;4964792;28;20050;-75
2022/04/10 05:35:09;;;;;;;21.77;4.18;;;;;;;1.16;100.00;101219.84;4965657;28;20069;-75
2022/04/10 05:37:54;;;;;;;24.77;4.65;;;;;;;1.29;100.00;101220.09;4967236;28;20054;-74
2022/04/10 05:40:38;;;;;;;23.63;4.80;;;;;;;1.44;100.00;101234.00;4977738;28;20436;-73
2022/04/10 05:43:23;;;;;;;21.83;4.35;;;;;;;1.49;100.00;101229.44;4976172;28;20089;-73
2022/04/10 05:46:09;;;;;;;15.73;4.00;;;;;;;1.51;100.00;101237.97;4963542;28;20134;-74
2022/04/10 05:48:54;;;;;;;27.70;4.38;;;;;;;1.48;100.00;101232.94;4977154;28;20520;-74
2022/04/10 05:51:41;;;;;;;22.15;4.30;;;;;;;1.40;100.00;101242.81;4960175;28;20046;-74
2022/04/10 05:54:26;;;;;;;23.33;4.32;;;;;;;1.56;100.00;101242.91;4962757;28;20109;-74
2022/04/10 05:57:12;;;;;;;22.45;5.25;;;;;;;1.67;100.00;101244.94;4965418;28;20057;-75
2022/04/10 05:59:57;;;;;;;21.40;4.18;;;;;;;1.74;100.00;101238.56;4975026;28;20049;-74
2022/04/10 06:02:42;;;;;;;25.08;4.47;;;;;;;1.83;100.00;101245.00;4968143;28;20042;-76
2022/04/10 06:05:30;;;;;;;24.15;4.22;;;;;;;1.84;100.00;101252.69;4979725;28;20053;-76
2022/04/10 06:08:22;;;;;;;22.23;4.65;;;;;;;1.82;100.00;101253.69;4962971;28;20081;-76
2022/04/10 06:11:07;;;;;;;21.42;4.10;;;;;;;1.82;100.00;101269.22;4978939;28;20054;-76
2022/04/10 06:13:54;;;;;;;27.25;4.30;;;;;;;1.76;100.00;101260.00;4967120;28;20042;-76
2022/04/10 06:16:25;;;;;;;14.85;3.47;;;;;;;1.80;100.00;101269.28;4949004;28;20051;-76
2022/04/10 06:18:51;;;;;;;14.77;3.28;;;;;;;1.79;100.00;101265.03;4978972;28;20042;-76
2022/04/10 06:21:17;;;;;;;23.60;3.58;;;;;;;1.73;100.00;101267.91;4967049;28;20825;-75
2022/04/10 06:23:45;;;;;;;17.58;3.45;;;;;;;1.85;100.00;101276.84;4950875;28;20083;-76
2022/04/10 06:26:26;;;;;;;24.83;4.15;;;;;;;2.06;100.00;101278.31;4979779;28;20236;-75
2022/04/10 06:28:53;;;;;;;26.73;4.55;;;;;;;2.28;100.00;101280.66;4966166;28;20043;-77
2022/04/10 06:31:26;;;;;;;17.75;3.42;;;;;;;2.52;100.00;101286.28;4975413;28;20113;-76
2022/04/10 06:33:54;;;;;;;21.55;3.95;;;;;;;2.84;100.00;101295.84;4979159;28;20062;-76
2022/04/10 06:36:20;;;;;;;22.75;3.80;;;;;;;2.85;100.00;101300.94;4948491;28;20050;-77
2022/04/10 06:38:48;;;;;;;22.88;4.20;;;;;;;2.88;100.00;101313.75;4952391;28;20130;-76
2022/04/10 06:41:19;;;;;;;22.02;3.63;;;;;;;2.77;100.00;101323.00;4963018;28;20038;-77
2022/04/10 06:43:46;;;;;;;19.95;4.28;;;;;;;2.64;100.00;101317.66;4950735;28;20034;-76
2022/04/10 06:46:26;;;;;;;16.73;3.40;;;;;;;2.66;100.00;101326.16;4949147;28;20046;-76
2022/04/10 06:49:19;;;;;;;16.73;4.28;;;;;;;2.54;100.00;101312.09;4961491;28;20058;-76
2022/04/10 06:51:45;;;;;;;17.88;3.47;;;;;;;2.70;100.00;101305.19;4952316;28;20037;-77
2022/04/10 06:54:16;;;;;;;17.13;3.78;;;;;;;2.71;100.00;101306.00;4945815;28;20037;-77
2022/04/10 06:56:42;;;;;;;18.17;3.72;;;;;;;2.71;100.00;101308.59;4953352;28;20418;-76
2022/04/10 06:59:08;;;;;;;25.17;4.07;;;;;;;2.58;100.00;101324.00;4949248;28;20049;-76
2022/04/10 07:01:34;;;;;;;20.70;4.40;;;;;;;2.43;100.00;101327.34;4943450;28;20417;-76
2022/04/10 07:04:01;;;;;;;18.17;4.30;;;;;;;2.42;100.00;101326.53;4962827;28;20038;-76
2022/04/10 07:06:28;;;;;;;19.92;4.05;;;;;;;2.51;100.00;101326.03;4947003;28;20034;-76
2022/04/10 07:08:54;;;;;;;19.83;3.78;;;;;;;2.53;100.00;101331.16;4963679;28;20034;-76
2022/04/10 07:11:26;;;;;;;15.87;3.33;;;;;;;2.48;100.00;101327.94;4949956;28;20034;-75
2022/04/10 07:13:52;;;;;;;18.88;3.95;;;;;;;2.56;100.00;101330.97;4949146;28;20713;-77
2022/04/10 07:16:18;;;;;;;19.08;4.13;;;;;;;2.75;100.00;101320.50;4934234;28;20035;-76
2022/04/10 07:18:44;;;;;;;22.73;3.72;;;;;;;2.93;100.00;101335.03;4948970;28;20031;-76
2022/04/10 07:21:15;;;;;;;20.33;4.00;;;;;;;3.16;100.00;101327.78;4941431;28;20805;-77
2022/04/10 07:23:42;;;;;;;20.83;3.72;;;;;;;3.35;100.00;101321.56;4961257;28;20066;-76
2022/04/10 07:26:11;;;;;;;17.15;4.03;;;;;;;3.44;100.00;101328.84;4948846;28;20031;-76
2022/04/10 07:28:37;;;;;;;13.50;3.55;;;;;;;3.44;100.00;101321.88;4933830;28;20038;-77
2022/04/10 07:31:06;;;;;;;22.98;3.85;;;;;;;3.58;100.00;101328.91;4965465;28;20133;-77
2022/04/10 07:33:35;;;;;;;23.10;3.70;;;;;;;3.53;100.00;101328.31;4945153;28;20050;-77
2022/04/10 07:36:11;;;;;;;19.58;3.28;;;;;;;3.69;100.00;101323.94;4942201;28;20035;-77
2022/04/10 07:38:38;;;;;;;9.27;2.25;;;;;;;3.87;100.00;101327.22;4960915;28;20039;-77
2022/04/10 07:41:08;;;;;;;7.75;2.20;;;;;;;3.63;100.00;101324.28;4949927;28;20034;-77
2022/04/10 07:43:38;;;;;;;9.40;2.45;;;;;;;3.81;100.00;101324.16;4948556;28;20149;-77
2022/04/10 07:49:05;;;;;;;9.70;2.35;;;;;;;4.13;100.00;101337.03;4946301;28;20034;-76
2022/04/10 07:51:37;;;;;;;13.40;2.65;;;;;;;4.28;100.00;101330.94;4944371;28;20047;-76
2022/04/10 07:54:12;;;;;;;10.43;2.40;;;;;;;4.45;100.00;101333.34;4961219;28;20445;-76
2022/04/10 07:56:38;;;;;;;8.82;2.25;;;;;;;4.61;100.00;101340.22;4938894;28;20041;-76
2022/04/10 07:59:07;;;;;;;15.98;2.90;;;;;;;4.72;100.00;101339.56;4962571;28;20062;-75
2022/04/10 08:01:37;;;;;;;12.43;2.97;;;;;;;4.65;100.00;101341.69;4948064;28;20050;-76
2022/04/10 08:04:07;;;;;;;16.48;2.97;;;;;;;4.61;100.00;101335.84;4960051;28;20596;-75
2022/04/10 08:06:44;;;;;;;20.02;3.10;;;;;;;4.69;100.00;101340.59;4949472;28;20038;-75
2022/04/10 08:09:10;;;;;;;11.73;2.47;;;;;;;4.90;100.00;101337.56;4966543;28;20030;-76
2022/04/10 08:11:35;;;;;;;17.65;3.08;;;;;;;4.91;100.00;101342.69;4967528;28;20563;-76
2022/04/10 08:14:01;;;;;;;18.65;3.13;;;;;;;5.03;100.00;101341.09;4984305;28;20039;-75
2022/04/10 08:16:26;;;;;;;15.27;3.25;;;;;;;5.15;100.00;101348.13;4965120;28;20110;-75
2022/04/10 08:18:53;;;;;;;17.25;2.97;;;;;;;5.32;100.00;101351.44;4964401;28;20054;-76
2022/04/10 08:21:19;;;;;;;15.75;2.58;;;;;;;5.12;100.00;101352.69;4965873;28;20133;-75
2022/04/10 08:23:44;;;;;;;14.38;2.53;;;;;;;4.81;100.00;101376.22;4947959;28;20567;-76
2022/04/10 08:26:10;;;;;;;18.00;2.72;;;;;;;4.20;100.00;101377.25;4947284;28;20377;-76
2022/04/10 08:28:36;;;;;;;7.63;2.13;;;;;;;3.75;100.00;101381.59;4973614;28;20046;-75
2022/04/10 08:31:02;;;;;;;10.80;2.40;;;;;;;3.21;100.00;101384.56;4967384;28;20090;-77
2022/04/10 08:33:27;;;;;;;7.78;2.53;;;;;;;3.08;100.00;101371.44;4979566;28;20039;-77
2022/04/10 08:35:53;;;;;;;9.75;2.33;;;;;;;3.09;100.00;101389.50;4967018;28;20031;-76
2022/04/10 08:38:18;;;;;;;17.45;4.18;;;;;;;3.44;100.00;101380.72;4953016;28;20114;-76
2022/04/10 08:40:45;;;;;;;15.70;3.03;;;;;;;3.66;100.00;101393.34;4947580;28;20041;-76
2022/04/10 08:43:11;;;;;;;12.43;2.17;;;;;;;3.98;100.00;101393.28;4967198;28;20093;-77
2022/04/10 08:45:38;;;;;;;11.82;2.10;;;;;;;4.20;100.00;101396.31;4982607;28;20034;-77
2022/04/10 08:48:04;;;;;;;9.73;2.30;;;;;;;4.41;100.00;101398.56;4965451;28;20462;-76
2022/04/10 08:50:30;;;;;;;9.20;2.10;;;;;;;4.56;100.00;101394.19;4965424;28;20818;-75
2022/04/10 08:52:58;;;;;;;12.27;2.55;;;;;;;4.45;100.00;101387.91;4952459;28;20101;-77
2022/04/10 08:55:24;;;;;;;14.73;2.30;;;;;;;4.65;100.00;101393.66;4979715;28;20094;-76
2022/04/10 08:57:50;;;;;;;12.48;2.33;;;;;;;4.84;100.00;101395.97;4949219;28;20042;-76
2022/04/10 09:00:19;;;;;;;9.90;2.00;;;;;;;4.94;100.00;101398.88;4962586;28;20046;-78
2022/04/10 09:02:49;;;;;;;10.43;1.90;;;;;;;5.19;100.00;101406.00;4967861;28;20130;-76
2022/04/10 09:05:20;;;;;;;13.95;1.80;;;;;;;5.31;100.00;101400.00;4947845;28;20041;-76
2022/04/10 09:08:04;;;;;;;10.88;1.80;;;;;;;5.23;100.00;101410.06;4949949;28;20413;-76
2022/04/10 09:10:30;;;;;;;13.82;1.75;;;;;;;5.34;100.00;101399.81;4961984;28;20112;-76
2022/04/10 09:12:56;;;;;;;12.80;1.35;;;;;;;5.34;100.00;101396.41;4959469;28;20035;-76
2022/04/10 09:15:32;;;;;;;11.77;1.85;;;;;;;5.61;100.00;101399.00;4961135;28;20053;-77
2022/04/10 09:17:57;;;;;;;11.85;1.92;;;;;;;5.71;100.00;101400.09;4949133;28;20039;-76
2022/04/10 09:20:23;;;;;;;8.13;1.48;;;;;;;5.86;100.00;101400.88;4948758;28;20046;-77
2022/04/10 09:22:48;;;;;;;11.52;1.88;;;;;;;5.73;98.46;101398.22;4950012;28;20717;-76
2022/04/10 09:25:16;;;;;;;14.35;1.95;;;;;;;5.91;100.00;101393.56;4948135;28;20043;-77
2022/04/10 09:27:46;;;;;;;14.00;2.50;;;;;;;6.09;98.97;101395.97;4963730;28;20753;-76
2022/04/10 09:30:16;;;;;;;17.02;2.05;;;;;;;6.26;99.66;101406.09;4962271;28;20038;-75
2022/04/10 09:32:53;;;;;;;13.50;2.00;;;;;;;6.43;100.00;101407.56;4979667;28;20488;-77
2022/04/10 09:35:21;;;;;;;13.20;2.20;;;;;;;6.03;100.00;101403.22;4947129;28;20064;-76
2022/04/10 09:37:51;;;;;;;15.57;2.20;;;;;;;6.34;100.00;101405.56;4946008;28;20400;-75
2022/04/10 09:40:36;;;;;;;10.85;2.00;;;;;;;6.81;100.00;101406.72;4945778;28;20034;-76
2022/04/10 09:43:12;;;;;;;18.88;2.38;;;;;;;7.06;92.55;101421.50;4964035;28;20034;-76
2022/04/10 09:45:44;;;;;;;19.00;2.55;;;;;;;7.24;95.79;101422.00;4946931;28;20094;-76
2022/04/10 09:48:29;;;;;;;11.27;1.90;;;;;;;7.32;88.41;101427.50;4964611;28;20030;-76
2022/04/10 09:51:00;;;;;;;17.50;1.75;;;;;;;7.00;89.76;101419.31;4951807;28;20543;-76
2022/04/10 09:53:27;;;;;;;9.73;1.55;;;;;;;6.68;96.23;101419.75;4960270;28;20086;-76
2022/04/10 09:55:54;;;;;;;17.20;2.30;;;;;;;6.50;93.24;101418.41;4963987;28;20126;-76
2022/04/10 09:58:21;;;;;;;13.73;1.85;;;;;;;6.66;95.36;101416.44;4949417;28;20420;-76
2022/04/10 10:00:47;;;;;;;11.13;2.00;;;;;;;6.91;93.96;101428.63;4952005;28;20484;-76
2022/04/10 10:03:14;;;;;;;11.93;1.92;;;;;;;6.65;92.05;101409.56;4966539;28;20054;-76
2022/04/10 10:05:40;;;;;;;13.20;1.83;;;;;;;6.39;91.08;101425.19;4977291;28;20039;-77
2022/04/10 10:08:07;;;;;;;8.70;1.48;;;;;;;6.58;93.74;101431.75;4962872;28;20065;-76
2022/04/10 10:10:35;;;;;;;13.23;1.83;;;;;;;6.65;89.83;101426.94;4964321;28;20034;-76
2022/04/10 10:13:05;;;;;;;14.98;2.00;;;;;;;6.71;92.58;101430.00;4966076;28;20110;-76
2022/04/10 10:15:32;;;;;;;13.55;1.70;;;;;;;6.73;92.53;101433.31;4961351;28;20038;-75
2022/04/10 10:18:01;;;;;;;9.70;1.73;;;;;;;6.99;93.47;101438.53;4979650;28;20031;-75
2022/04/10 10:20:29;;;;;;;10.52;2.03;;;;;;;7.31;88.94;101448.47;4973949;28;20669;-77
2022/04/10 10:22:56;;;;;;;9.23;1.75;;;;;;;7.25;88.27;101443.69;4949722;28;20809;-75
2022/04/10 10:25:30;;;;;;;5.70;1.40;;;;;;;7.37;91.16;101450.69;4963941;28;20117;-75
2022/04/10 10:28:34;;;;;;;7.68;1.42;;;;;;;7.30;86.11;101445.03;4978431;28;20030;-75
2022/04/10 10:31:38;;;;;;;12.00;2.00;;;;;;;7.50;92.80;101448.03;4962581;28;20039;-75
2022/04/10 10:34:08;;;;;;;10.68;1.60;;;;;;;7.59;83.25;101440.38;4959880;28;20031;-75
2022/04/10 10:36:35;;;;;;;6.93;1.80;;;;;;;7.71;85.72;101448.28;4965325;28;20035;-75
2022/04/10 10:39:03;;;;;;;10.02;1.83;;;;;;;7.92;85.45;101435.44;4964085;28;20504;-76
2022/04/10 10:41:29;;;;;;;11.15;1.60;;;;;;;7.99;84.91;101458.38;4974668;28;20050;-75
2022/04/10 10:43:55;;;;;;;10.13;1.85;;;;;;;8.24;83.02;101447.91;4980211;28;20035;-75
2022/04/10 10:46:32;;;;;;;9.00;1.90;;;;;;;8.53;81.28;101433.50;4943010;28;20595;-75
2022/04/10 10:49:18;;;;;;;11.20;1.75;;;;;;;8.50;76.26;101457.28;4963049;28;20049;-79
2022/04/10 10:51:48;;;;;;;8.63;1.58;;;;;;;8.99;79.18;101444.84;4961869;28;20054;-75
2022/04/10 10:54:21;;;;;;;8.65;1.65;;;;;;;8.86;78.10;101459.81;4946556;28;20039;-75
2022/04/10 10:56:50;;;;;;;12.43;1.60;;;;;;;8.96;75.12;101458.97;4959521;28;20652;-76
2022/04/10 10:59:18;;;;;;;8.27;2.20;;;;;;;9.22;72.00;101461.38;4962310;28;20496;-75
2022/04/10 11:02:11;;;;;;;12.73;2.13;;;;;;;9.00;74.74;101464.81;4966187;28;20051;-74
2022/04/10 11:04:43;;;;;;;11.77;2.13;;;;;;;8.48;77.20;101464.41;4955845;28;20756;-75
2022/04/10 11:07:13;;;;;;;11.23;1.63;;;;;;;7.72;75.96;101468.19;4949391;28;20103;-76
2022/04/10 11:09:54;;;;;;;9.02;1.75;;;;;;;6.88;84.31;101473.16;4962112;28;20512;-76
2022/04/10 11:12:21;;;;;;;8.50;1.45;;;;;;;6.09;91.36;101479.31;4976003;28;20046;-76
2022/04/10 11:14:50;;;;;;;9.27;1.40;;;;;;;5.88;94.12;101474.50;4946704;28;20495;-75
2022/04/10 11:17:31;;;;;;;10.02;1.50;;;;;;;6.35;96.51;101477.63;4946925;28;20067;-75
2022/04/10 11:20:07;;;;;;;6.43;1.30;;;;;;;6.81;94.46;101472.75;4942492;28;20062;-75
2022/04/10 11:22:53;;;;;;;8.20;1.40;;;;;;;7.19;93.43;101489.31;4956902;28;20279;-75
2022/04/10 11:25:47;;;;;;;5.07;1.17;;;;;;;7.31;90.89;101483.25;4957486;28;20520;-76
2022/04/10 11:28:13;;;;;;;14.38;1.90;;;;;;;7.59;88.61;101483.91;4959392;28;20073;-75
2022/04/10 11:30:45;;;;;;;11.00;1.77;;;;;;;8.02;87.87;101475.59;4966773;28;20118;-74
2022/04/10 11:33:13;;;;;;;11.05;2.05;;;;;;;8.26;85.95;101469.53;4947315;28;20034;-76
2022/04/10 11:35:42;;;;;;;10.82;2.10;;;;;;;7.99;83.50;101473.22;4949720;28;20047;-76
2022/04/10 11:38:17;;;;;;;9.32;1.70;;;;;;;7.64;84.63;101494.03;4963817;28;20122;-75
2022/04/10 11:40:48;;;;;;;13.88;1.92;;;;;;;6.23;92.59;101513.09;4964925;28;20031;-75
2022/04/10 11:43:18;;;;;;;13.25;2.10;;;;;;;5.55;100.00;101525.13;4949910;28;20481;-77
2022/04/10 11:45:45;;;;;;;13.85;2.03;;;;;;;4.98;100.00;101515.59;4965973;28;20027;-75
2022/04/10 11:48:11;;;;;;;10.75;1.92;;;;;;;4.60;100.00;101504.84;4953533;28;20042;-76
2022/04/10 11:50:38;;;;;;;16.20;2.30;;;;;;;4.63;100.00;101515.91;4970219;28;20118;-76